Gerton, NC

03:48 PM EST on Di 20, 2014 (GMT -0500)
Little Bearwallow MOUNTAIN | Change Station
CLOSE
Current Station
Personal Weather Stations
Location: Hendersonville, NC
Elevation: 2820 ft
Nearby Weather Stations

Elev 2820 ft 35.44 °N, 82.35 °W | Updated 8 seconds ago

imsahhab
imsahhab
38.8 °F
Feels Like 39 °F
N
0.0
rih varjabbli rih from Vant ix-xlokk
Gusts 0.0 mph

Illum
High -- | Low -- °F
--% Chance of Precip.
Yesterday
High -- | Low -- °F
Precip. -- in
7:34 AM 5:19 PM
Waning Crescent, 2% visible
pressjoni 30.14 in
vizibilita 10.0 mili
s imsahhab 1600 ft
kesha tar-rih 39 °F
punt ta' nida 37 °F
umdita 93%
Rainfall 0.00 in
Snow Depth Not available.
UV 0 out of 12
Pollen .70 out of 12
Air Quality Not available.
Flu Activity Not available.
SPECI KAVL 202022Z 11005KT 10SM OVC016 06/03 A3014 RMK AO2 T00610028

More Conditions Fewer Conditions

pressjoni 30.14 in
vizibilita 10.0 mili
s imsahhab 1600 ft
kesha tar-rih 39 °F
punt ta' nida 37 °F
umdita 93%
Rainfall 0.00 in
Snow Depth Not available.
UV 0 out of 12
Pollen .70 out of 12
Air Quality Not available.
Flu Activity Not available.
SPECI KAVL 202022Z 11005KT 10SM OVC016 06/03 A3014 RMK AO2 T00610028

More Conditions Fewer Conditions

10-Day Weather Forecast

Almanac

Astronomy

Dec. 20, 2014 Rise Set
Actual Time
Civil Twilight
Nautical Twilight
Astronomical Twilight
Moon
Length Of Visible Light
Length of Day
Tomorrow will be .
, % of the Moon is Illuminated

Today's Extremes

State Highs State Lows

Community

WunderPhotos

Upload Photos

1,779,271 photos uploaded!

WunderBlogs® & News

Nearby

Air Quality

  Air Quality AQ Index Pollutant
Not available.

Snow Depth

Station Depth Elevation

Earthquake Activity

City Distance Mag. Time & Date
Minimum magnitude displayed is 2.5.

Coastal Water Temperatures

Post temperatura

Nearby Weather Stations